Time;durP1;ratioP1;P1;durP2;ratioP2;P2;SDS_P1;SDS_P2;PMS_P1;PMS_P2;Temp;Humidity;BMP_temperature;BMP_pressure;BME280_temperature;BME280_humidity;BME280_pressure;Samples;Min_cycle;Max_cycle;Signal;HPM_P1;HPM_P2
2021/08/09 00:02:25;;;;;;;21.87;7.62;;;;;;;22.75;100.00;100621.80;1783128;80;21065;-87
2021/08/09 00:04:51;;;;;;;16.93;7.20;;;;;;;22.75;100.00;100620.42;1783209;80;21154;-86
2021/08/09 00:07:17;;;;;;;21.23;7.35;;;;;;;22.75;100.00;100623.17;1783049;80;20857;-86
2021/08/09 00:09:42;;;;;;;15.72;7.03;;;;;;;22.74;100.00;100618.83;1782535;80;20884;-87
2021/08/09 00:12:08;;;;;;;18.00;7.40;;;;;;;22.71;100.00;100618.14;1776984;80;20943;-87
2021/08/09 00:14:38;;;;;;;12.23;7.10;;;;;;;22.71;100.00;100616.77;1777943;80;21026;-86
2021/08/09 00:17:03;;;;;;;20.40;7.10;;;;;;;22.72;100.00;100616.19;1777750;79;21160;-86
2021/08/09 00:19:29;;;;;;;14.33;7.33;;;;;;;22.73;100.00;100614.45;1778309;80;21043;-85
2021/08/09 00:21:55;;;;;;;14.10;7.00;;;;;;;22.76;100.00;100615.72;1777612;80;20920;-86
2021/08/09 00:24:20;;;;;;;25.30;8.13;;;;;;;22.70;100.00;100614.34;1777974;80;20940;-86
2021/08/09 00:26:46;;;;;;;14.10;7.20;;;;;;;22.66;100.00;100616.41;1777989;80;21073;-87
2021/08/09 00:29:12;;;;;;;24.10;8.23;;;;;;;22.68;100.00;100620.99;1778115;80;21675;-87
2021/08/09 00:31:38;;;;;;;14.35;7.33;;;;;;;22.68;100.00;100610.00;1777866;80;20932;-89
2021/08/09 00:34:06;;;;;;;13.90;7.60;;;;;;;22.69;100.00;100613.55;1777877;80;20877;-87
2021/08/09 00:36:32;;;;;;;18.15;7.78;;;;;;;22.67;100.00;100611.13;1777578;80;21370;-87
2021/08/09 00:38:58;;;;;;;21.75;7.80;;;;;;;22.67;100.00;100612.50;1777986;80;21645;-90
2021/08/09 00:41:24;;;;;;;18.70;8.05;;;;;;;22.65;100.00;100602.45;1778027;80;21141;-86
2021/08/09 00:43:50;;;;;;;20.48;8.13;;;;;;;22.64;100.00;100609.06;1778114;80;21016;-86
2021/08/09 00:46:29;;;;;;;23.98;8.50;;;;;;;22.62;100.00;100607.25;1777987;80;21537;-86
2021/08/09 00:48:56;;;;;;;19.27;8.00;;;;;;;22.60;100.00;100608.15;1777459;80;21047;-86
2021/08/09 00:51:22;;;;;;;18.10;8.50;;;;;;;22.59;100.00;100616.17;1777925;80;21024;-86
2021/08/09 00:53:48;;;;;;;20.80;8.18;;;;;;;22.59;100.00;100613.42;1777877;80;21106;-88
2021/08/09 00:56:14;;;;;;;19.90;8.43;;;;;;;22.60;100.00;100619.14;1777742;80;21386;-87
2021/08/09 00:58:40;;;;;;;15.45;8.18;;;;;;;22.59;100.00;100617.55;1767267;80;20984;-87
2021/08/09 01:01:07;;;;;;;20.08;8.38;;;;;;;22.58;100.00;100611.00;1777788;80;20992;-87
2021/08/09 01:03:33;;;;;;;26.57;8.15;;;;;;;22.59;100.00;100612.59;1777779;80;20972;-87
2021/08/09 01:05:59;;;;;;;20.48;8.53;;;;;;;22.58;100.00;100621.98;1777915;80;21811;-86
2021/08/09 01:08:48;;;;;;;16.97;8.08;;;;;;;22.59;100.00;100625.79;1777861;80;20912;-85
2021/08/09 01:11:47;;;;;;;16.20;8.13;;;;;;;22.57;100.00;100631.38;1773668;80;21047;-87
2021/08/09 01:14:34;;;;;;;17.85;8.25;;;;;;;22.55;100.00;100628.97;1777887;80;21562;-87
2021/08/09 01:17:01;;;;;;;20.85;8.75;;;;;;;22.53;100.00;100626.32;1767239;80;21039;-85
2021/08/09 01:19:53;;;;;;;24.67;8.03;;;;;;;22.50;100.00;100620.14;1777880;80;21879;-87
2021/08/09 01:22:55;;;;;;;15.53;7.80;;;;;;;22.45;100.00;100620.59;1737921;82;21034;-89
2021/08/09 01:25:59;;;;;;;26.23;8.23;;;;;;;22.44;100.00;100618.17;1744411;82;21596;-86
2021/08/09 01:28:32;;;;;;;15.80;8.15;;;;;;;22.39;100.00;100621.16;1744275;82;21006;-87
2021/08/09 01:31:00;;;;;;;18.70;7.85;;;;;;;22.37;100.00;100617.94;1744618;82;21078;-91
2021/08/09 01:33:29;;;;;;;18.00;7.58;;;;;;;22.35;100.00;100619.64;1744570;82;21535;-86
2021/08/09 01:35:58;;;;;;;26.77;8.60;;;;;;;22.34;100.00;100620.78;1721396;82;21155;-86
2021/08/09 01:38:27;;;;;;;18.55;7.92;;;;;;;22.33;100.00;100612.91;1744274;82;21038;-86
2021/08/09 01:40:57;;;;;;;20.60;8.10;;;;;;;22.33;100.00;100613.70;1744272;82;21081;-85
2021/08/09 01:43:30;;;;;;;21.37;7.95;;;;;;;22.31;100.00;100613.80;1744035;82;21080;-87
2021/08/09 01:45:59;;;;;;;20.62;7.42;;;;;;;22.28;100.00;100610.36;1744382;82;21144;-87
2021/08/09 01:48:27;;;;;;;21.12;8.08;;;;;;;22.25;100.00;100613.20;1743950;82;21098;-85
2021/08/09 01:50:55;;;;;;;18.23;8.33;;;;;;;22.19;100.00;100603.58;1744394;82;20987;-86
2021/08/09 01:53:23;;;;;;;23.32;8.73;;;;;;;22.19;100.00;100612.62;1744417;82;21042;-87
2021/08/09 01:55:50;;;;;;;16.40;8.80;;;;;;;22.15;100.00;100609.50;1744439;82;21078;-84
2021/08/09 01:58:16;;;;;;;18.55;7.83;;;;;;;22.11;100.00;100609.34;1744277;82;21915;-85
2021/08/09 02:00:42;;;;;;;21.80;8.43;;;;;;;22.06;100.00;100612.32;1776021;80;20988;-86
2021/08/09 02:03:08;;;;;;;17.85;8.35;;;;;;;22.03;100.00;100612.17;1777915;80;21053;-90
2021/08/09 02:05:47;;;;;;;37.00;8.93;;;;;;;21.97;100.00;100612.94;1777666;80;21079;-86
2021/08/09 02:08:14;;;;;;;24.55;9.35;;;;;;;21.93;100.00;100619.68;1777714;80;21020;-85
2021/08/09 02:10:41;;;;;;;20.00;8.55;;;;;;;21.91;100.00;100610.17;1777685;79;21863;-85
2021/08/09 02:13:19;;;;;;;26.50;8.75;;;;;;;21.89;100.00;100609.73;1779562;80;21031;-86
2021/08/09 02:15:58;;;;;;;30.48;8.80;;;;;;;21.89;100.00;100616.02;1783101;80;20984;-86
2021/08/09 02:18:38;;;;;;;22.50;7.87;;;;;;;21.86;100.00;100614.52;1781554;80;21054;-84
2021/08/09 02:21:14;;;;;;;20.62;8.83;;;;;;;21.84;100.00;100617.58;1778530;80;21039;-86
2021/08/09 02:23:53;;;;;;;21.65;8.40;;;;;;;21.84;100.00;100612.66;1783086;80;21060;-87
2021/08/09 02:26:27;;;;;;;21.52;8.30;;;;;;;21.83;100.00;100605.01;1781708;80;21044;-85
2021/08/09 02:28:58;;;;;;;20.25;9.05;;;;;;;21.84;100.00;100606.61;1749019;80;20999;-86
2021/08/09 02:31:25;;;;;;;21.23;8.40;;;;;;;21.82;100.00;100602.59;1775065;80;20991;-87
2021/08/09 02:33:52;;;;;;;15.95;8.15;;;;;;;21.80;100.00;100600.77;1775043;80;21054;-85
2021/08/09 02:36:18;;;;;;;16.00;7.85;;;;;;;21.80;100.00;100609.80;1775111;80;21125;-89
2021/08/09 02:38:46;;;;;;;15.60;7.47;;;;;;;21.78;100.00;100607.38;1774923;80;20990;-85
2021/08/09 02:41:13;;;;;;;17.37;7.80;;;;;;;21.71;100.00;100614.55;1775360;80;21004;-86
2021/08/09 02:43:39;;;;;;;23.92;7.85;;;;;;;21.69;100.00;100608.02;1774839;80;21078;-83
2021/08/09 02:46:06;;;;;;;24.72;8.08;;;;;;;21.67;100.00;100619.88;1774848;80;21062;-85
2021/08/09 02:48:43;;;;;;;24.40;8.53;;;;;;;21.66;100.00;100621.03;1774836;80;21582;-85
2021/08/09 02:51:11;;;;;;;16.55;7.58;;;;;;;21.69;100.00;100625.05;1758234;80;21116;-86
2021/08/09 02:53:40;;;;;;;18.65;8.33;;;;;;;21.71;100.00;100621.41;1777053;80;21015;-85
2021/08/09 02:56:07;;;;;;;14.38;7.70;;;;;;;21.71;100.00;100622.20;1776998;80;21118;-86
2021/08/09 02:58:33;;;;;;;23.22;8.48;;;;;;;21.65;100.00;100626.83;1777351;80;21016;-85
2021/08/09 03:01:00;;;;;;;27.15;8.98;;;;;;;21.62;100.00;100638.47;1777494;80;21061;-85
2021/08/09 03:03:29;;;;;;;26.57;9.63;;;;;;;21.63;100.00;100637.36;1777206;80;20960;-87
2021/08/09 03:05:58;;;;;;;23.38;8.15;;;;;;;21.66;100.00;100633.37;1777386;80;20959;-86
2021/08/09 03:10:55;;;;;;;21.45;8.20;;;;;;;21.77;100.00;100637.33;1683052;85;21039;-86
2021/08/09 03:13:24;;;;;;;17.48;7.90;;;;;;;21.82;100.00;100638.25;1660150;85;21172;-86
2021/08/09 03:15:51;;;;;;;19.48;7.58;;;;;;;21.88;100.00;100642.41;1679860;85;21043;-84
2021/08/09 03:18:17;;;;;;;17.92;7.97;;;;;;;21.93;100.00;100639.46;1683369;85;21036;-88
2021/08/09 03:20:44;;;;;;;16.23;8.50;;;;;;;21.97;100.00;100640.39;1683241;85;20987;-86
2021/08/09 03:23:10;;;;;;;16.40;8.35;;;;;;;22.04;100.00;100643.98;1683297;85;21106;-82
2021/08/09 03:25:42;;;;;;;21.95;8.35;;;;;;;22.12;100.00;100634.30;1672609;85;21134;-86
2021/08/09 03:28:08;;;;;;;18.60;7.42;;;;;;;22.19;100.00;100637.33;1660655;86;21137;-90
2021/08/09 03:30:34;;;;;;;21.77;8.40;;;;;;;22.30;100.00;100632.80;1661268;86;20934;-86
2021/08/09 03:33:00;;;;;;;20.90;8.63;;;;;;;22.40;100.00;100632.36;1660727;86;20956;-85
2021/08/09 03:35:26;;;;;;;24.10;8.13;;;;;;;22.53;100.00;100631.81;1660836;85;21042;-87
2021/08/09 03:37:52;;;;;;;19.57;8.15;;;;;;;22.68;100.00;100632.56;1660933;86;21964;-86
2021/08/09 03:40:19;;;;;;;26.82;9.00;;;;;;;22.85;100.00;100642.52;1660720;85;20902;-89
2021/08/09 03:42:45;;;;;;;22.37;8.05;;;;;;;23.05;100.00;100647.16;1660770;86;21031;-86
2021/08/09 03:45:11;;;;;;;23.90;8.28;;;;;;;23.18;100.00;100649.36;1661190;86;20886;-85
2021/08/09 03:47:37;;;;;;;20.55;7.30;;;;;;;23.40;100.00;100639.81;1700122;83;21067;-86
2021/08/09 03:50:04;;;;;;;21.05;8.33;;;;;;;23.79;100.00;100634.14;1712023;83;21144;-87
2021/08/09 03:52:30;;;;;;;18.50;7.67;;;;;;;24.24;100.00;100634.46;1713316;83;21484;-85
2021/08/09 03:54:56;;;;;;;27.60;7.47;;;;;;;24.73;100.00;100629.84;1712807;83;21028;-86
2021/08/09 03:57:23;;;;;;;27.25;7.80;;;;;;;25.18;100.00;100628.05;1711356;83;21688;-87
2021/08/09 03:59:49;;;;;;;18.15;7.20;;;;;;;25.73;100.00;100630.83;1705122;82;21078;-86
2021/08/09 04:02:16;;;;;;;25.08;8.00;;;;;;;26.18;100.00;100634.38;1721520;82;21115;-86
2021/08/09 04:04:43;;;;;;;26.10;7.40;;;;;;;26.66;100.00;100625.80;1713060;82;20992;-87
2021/08/09 04:07:09;;;;;;;18.95;7.35;;;;;;;27.14;100.00;100629.73;1745782;79;20992;-91
2021/08/09 04:09:38;;;;;;;19.67;6.70;;;;;;;27.59;100.00;100622.52;1808907;79;21515;-87
2021/08/09 04:12:04;;;;;;;12.98;6.12;;;;;;;27.87;100.00;100626.86;1811911;79;21484;-86
2021/08/09 04:14:30;;;;;;;16.85;7.92;;;;;;;28.21;100.00;100619.94;1814198;79;20965;-88
2021/08/09 04:16:56;;;;;;;20.02;7.08;;;;;;;28.64;100.00;100619.78;1818159;79;21669;-87
2021/08/09 04:19:22;;;;;;;20.77;6.97;;;;;;;29.05;100.00;100623.91;1797311;79;20992;-86
2021/08/09 04:21:48;;;;;;;20.02;7.95;;;;;;;29.38;100.00;100634.04;1807726;79;21543;-91
2021/08/09 04:24:14;;;;;;;20.17;7.42;;;;;;;29.71;100.00;100631.47;1799905;79;20966;-87
2021/08/09 04:26:40;;;;;;;29.07;8.30;;;;;;;30.10;100.00;100631.64;1807107;79;21877;-84
2021/08/09 04:29:06;;;;;;;19.42;7.00;;;;;;;30.47;100.00;100633.33;1804722;79;20857;-87
2021/08/09 04:31:33;;;;;;;23.42;7.65;;;;;;;30.69;100.00;100629.39;1784185;79;20969;-87
2021/08/09 04:33:59;;;;;;;18.52;6.78;;;;;;;31.19;100.00;100628.61;1804765;78;21062;-88
2021/08/09 04:36:27;;;;;;;20.65;7.35;;;;;;;31.71;98.65;100622.52;1795009;78;20948;-86
2021/08/09 04:38:53;;;;;;;24.43;7.65;;;;;;;32.07;93.97;100622.59;1810755;78;21126;-86
2021/08/09 04:41:19;;;;;;;24.43;7.70;;;;;;;32.46;89.94;100619.39;1805491;79;20943;-88
2021/08/09 04:43:45;;;;;;;23.15;7.28;;;;;;;32.89;88.24;100624.65;1801326;78;20962;-88
2021/08/09 04:46:11;;;;;;;23.22;7.17;;;;;;;33.22;84.43;100621.16;1809615;79;21013;-85
2021/08/09 04:48:37;;;;;;;34.85;7.65;;;;;;;33.65;77.41;100622.11;1793420;79;21001;-87
2021/08/09 04:51:02;;;;;;;22.05;7.37;;;;;;;33.99;72.90;100619.87;1802144;78;20964;-86
2021/08/09 04:53:28;;;;;;;26.68;7.78;;;;;;;34.11;70.84;100615.74;1822647;78;21595;-87
2021/08/09 04:55:54;;;;;;;20.35;7.25;;;;;;;34.48;68.08;100616.20;1826460;78;21509;-87
2021/08/09 04:58:20;;;;;;;23.27;8.10;;;;;;;34.86;65.07;100609.01;1826445;78;20871;-85
2021/08/09 05:00:46;;;;;;;23.00;7.75;;;;;;;35.12;61.60;100610.76;1826276;77;20990;-86
2021/08/09 05:03:12;;;;;;;27.00;8.30;;;;;;;35.21;60.17;100617.99;1826366;78;21902;-86
2021/08/09 05:05:38;;;;;;;23.50;7.70;;;;;;;35.52;59.70;100617.81;1826452;78;20879;-87
2021/08/09 05:08:04;;;;;;;21.33;7.47;;;;;;;35.82;56.60;100616.19;1822835;78;20886;-87
2021/08/09 05:10:30;;;;;;;27.58;8.90;;;;;;;35.97;55.12;100618.08;1826423;77;20950;-86
2021/08/09 05:12:56;;;;;;;21.02;8.00;;;;;;;35.75;54.72;100619.78;1828834;78;21056;-88
2021/08/09 05:15:26;;;;;;;18.50;8.65;;;;;;;36.00;54.23;100620.02;1829336;78;21635;-86
2021/08/09 05:17:54;;;;;;;23.25;8.28;;;;;;;36.41;53.08;100615.90;1828916;78;21076;-87
2021/08/09 05:20:20;;;;;;;21.93;8.65;;;;;;;36.84;51.49;100615.66;1829515;78;21512;-88
2021/08/09 05:22:46;;;;;;;23.62;8.83;;;;;;;37.16;50.07;100610.46;1829713;78;20934;-88
2021/08/09 05:25:12;;;;;;;22.58;9.70;;;;;;;37.54;48.84;100611.25;1813932;78;21684;-89
2021/08/09 05:27:39;;;;;;;24.72;10.45;;;;;;;37.87;47.98;100612.65;1815513;79;21088;-87
2021/08/09 05:30:08;;;;;;;40.88;15.00;;;;;;;38.34;46.52;100617.65;1785289;78;21054;-87
2021/08/09 05:32:35;;;;;;;41.15;16.60;;;;;;;38.38;45.11;100618.31;1825720;77;20995;-87
2021/08/09 05:35:05;;;;;;;41.33;15.75;;;;;;;37.59;44.57;100622.70;1834719;78;21094;-86
2021/08/09 05:37:32;;;;;;;38.10;15.30;;;;;;;37.43;45.50;100626.35;1831953;76;20972;-87
2021/08/09 05:40:04;;;;;;;48.40;14.80;;;;;;;37.41;44.93;100635.05;1834897;78;22134;-89
2021/08/09 05:42:30;;;;;;;36.70;14.35;;;;;;;37.61;45.84;100631.50;1834828;78;20987;-86
2021/08/09 05:44:56;;;;;;;52.98;16.00;;;;;;;38.16;44.92;100637.14;1834783;78;20859;-79
2021/08/09 05:47:22;;;;;;;35.43;15.72;;;;;;;37.99;43.85;100640.66;1834370;78;20982;-79
2021/08/09 05:49:49;;;;;;;44.08;16.42;;;;;;;37.83;44.69;100638.70;1834254;78;21178;-79
2021/08/09 05:52:24;;;;;;;39.03;16.75;;;;;;;38.31;44.42;100641.08;1813532;78;21052;-79
2021/08/09 05:54:51;;;;;;;38.08;15.30;;;;;;;38.50;43.16;100644.91;1758380;80;20990;-79
2021/08/09 05:57:17;;;;;;;42.53;15.32;;;;;;;38.56;42.85;100640.31;1758213;80;21309;-79
2021/08/09 05:59:45;;;;;;;33.70;15.00;;;;;;;39.06;43.08;100640.66;1758289;80;21033;-79
2021/08/09 06:02:12;;;;;;;34.35;15.50;;;;;;;39.86;42.59;100636.58;1754240;80;21011;-75
2021/08/09 06:04:38;;;;;;;32.28;15.18;;;;;;;40.57;41.10;100636.60;1758379;80;21243;-78
2021/08/09 06:07:04;;;;;;;34.45;15.93;;;;;;;41.17;39.51;100637.36;1758455;80;21698;-79
2021/08/09 06:09:30;;;;;;;29.98;15.53;;;;;;;41.07;37.69;100637.36;1758414;80;21029;-79
2021/08/09 06:11:57;;;;;;;39.23;15.98;;;;;;;40.44;37.74;100650.69;1752454;80;20915;-79
2021/08/09 06:14:23;;;;;;;34.73;16.35;;;;;;;40.43;38.15;100646.30;1744857;82;21010;-80
2021/08/09 06:16:49;;;;;;;33.92;16.55;;;;;;;40.93;37.86;100642.81;1744790;82;20972;-79
2021/08/09 06:19:15;;;;;;;31.82;16.50;;;;;;;41.28;37.01;100653.23;1744806;82;20941;-80
2021/08/09 06:21:41;;;;;;;36.23;16.82;;;;;;;41.28;36.53;100656.05;1720039;82;20891;-79
2021/08/09 06:24:06;;;;;;;38.10;18.75;;;;;;;41.69;37.14;100653.84;1744799;81;21581;-80
2021/08/09 06:26:32;;;;;;;50.30;20.48;;;;;;;42.14;35.16;100652.15;1744838;82;20912;-79
2021/08/09 06:28:58;;;;;;;36.08;18.65;;;;;;;41.68;35.75;100645.98;1744574;82;21581;-80
2021/08/09 06:31:24;;;;;;;45.38;20.12;;;;;;;42.08;35.66;100645.56;1743741;82;20863;-80
2021/08/09 06:33:50;;;;;;;44.40;19.23;;;;;;;42.51;35.19;100644.94;1739075;82;20954;-79
2021/08/09 06:36:18;;;;;;;36.17;19.55;;;;;;;42.84;34.89;100642.06;1739162;82;20890;-79
2021/08/09 06:38:44;;;;;;;42.15;19.25;;;;;;;43.07;34.18;100639.83;1690409;84;21029;-76
2021/08/09 06:41:10;;;;;;;40.83;18.37;;;;;;;43.21;34.24;100636.91;1690646;84;21172;-79
2021/08/09 06:43:35;;;;;;;37.23;18.67;;;;;;;43.42;33.57;100638.43;1688257;84;21179;-79
2021/08/09 06:46:01;;;;;;;36.20;17.23;;;;;;;43.46;33.49;100638.40;1688064;84;20883;-80
2021/08/09 06:48:27;;;;;;;35.35;17.50;;;;;;;43.57;33.20;100633.59;1688209;84;20983;-79
2021/08/09 06:50:55;;;;;;;35.40;17.60;;;;;;;43.76;32.51;100634.95;1688076;84;21751;-80
2021/08/09 06:53:24;;;;;;;33.50;17.50;;;;;;;43.84;33.01;100636.77;1687660;84;21341;-79
2021/08/09 06:55:50;;;;;;;36.28;16.55;;;;;;;44.25;31.69;100635.50;1687850;84;21089;-80
2021/08/09 06:58:16;;;;;;;42.20;16.75;;;;;;;44.26;32.07;100636.27;1687960;84;20875;-79
2021/08/09 07:00:42;;;;;;;27.02;15.30;;;;;;;44.28;31.82;100639.41;1687914;84;20953;-79
2021/08/09 07:03:09;;;;;;;30.12;15.90;;;;;;;44.48;31.51;100634.41;1681933;84;21629;-80
2021/08/09 07:05:43;;;;;;;37.55;17.20;;;;;;;44.80;31.17;100633.34;1633597;87;21199;-80
2021/08/09 07:08:09;;;;;;;30.27;16.73;;;;;;;44.99;30.44;100631.61;1634105;86;21031;-83
2021/08/09 07:10:35;;;;;;;30.45;15.60;;;;;;;45.25;30.48;100633.09;1636610;84;21613;-80
2021/08/09 07:13:02;;;;;;;25.57;14.65;;;;;;;45.76;30.49;100629.45;1731111;82;21034;-79
2021/08/09 07:15:27;;;;;;;32.28;17.17;;;;;;;45.92;30.23;100626.63;1736716;82;21559;-79
2021/08/09 07:17:53;;;;;;;37.38;17.75;;;;;;;46.06;29.11;100626.33;1735477;82;21168;-79
2021/08/09 07:20:19;;;;;;;34.20;16.95;;;;;;;45.51;28.54;100631.70;1737737;82;21531;-79
2021/08/09 07:22:47;;;;;;;32.98;17.23;;;;;;;44.11;29.45;100635.67;1736543;82;21156;-81
2021/08/09 07:25:15;;;;;;;31.80;16.42;;;;;;;43.32;30.29;100641.36;1732944;81;21068;-80
2021/08/09 07:27:42;;;;;;;25.48;16.42;;;;;;;43.62;31.08;100635.73;1738350;82;21554;-79
2021/08/09 07:30:12;;;;;;;35.08;16.20;;;;;;;44.15;31.01;100634.84;1713843;82;21082;-79
2021/08/09 07:32:40;;;;;;;28.87;15.63;;;;;;;44.83;30.08;100635.80;1738670;82;21030;-79
2021/08/09 07:35:10;;;;;;;30.35;15.83;;;;;;;45.00;29.77;100616.09;1761408;79;22180;-79
2021/08/09 07:37:36;;;;;;;28.60;15.83;;;;;;;45.19;29.66;100632.25;1811407;78;21036;-78
2021/08/09 07:40:05;;;;;;;31.15;16.02;;;;;;;45.68;28.76;100626.13;1809174;77;21693;-79
2021/08/09 07:42:32;;;;;;;23.20;14.75;;;;;;;46.33;28.36;100628.47;1809007;79;21960;-80
2021/08/09 07:44:57;;;;;;;26.17;15.83;;;;;;;46.70;27.42;100621.30;1804709;78;20989;-79
2021/08/09 07:47:24;;;;;;;28.77;15.80;;;;;;;46.62;27.05;100622.39;1807000;78;21028;-79
2021/08/09 07:49:50;;;;;;;31.97;15.68;;;;;;;46.32;27.32;100629.11;1808168;77;21019;-79
2021/08/09 07:52:16;;;;;;;32.10;16.55;;;;;;;46.23;28.08;100630.72;1809407;78;20988;-79
2021/08/09 07:54:44;;;;;;;30.55;15.88;;;;;;;45.78;27.56;100628.95;1809377;78;21466;-79
2021/08/09 07:57:09;;;;;;;30.45;15.45;;;;;;;44.79;28.62;100636.02;1809255;77;20966;-79
2021/08/09 07:59:35;;;;;;;27.45;16.52;;;;;;;44.64;29.34;100638.91;1809593;78;20919;-80
2021/08/09 08:02:03;;;;;;;25.95;13.98;;;;;;;45.43;28.90;100634.17;1807191;79;20822;-79
2021/08/09 08:04:31;;;;;;;26.27;15.10;;;;;;;46.06;28.21;100636.30;1809815;79;21027;-79
2021/08/09 08:06:57;;;;;;;23.32;14.07;;;;;;;46.82;27.71;100649.22;1809470;79;21975;-79
2021/08/09 08:09:24;;;;;;;22.35;14.28;;;;;;;47.21;27.39;100642.88;1809518;78;21039;-79
2021/08/09 08:11:51;;;;;;;25.95;15.28;;;;;;;47.48;26.92;100648.52;1809281;79;21044;-79
2021/08/09 08:14:17;;;;;;;22.45;14.70;;;;;;;47.93;26.16;100648.58;1809426;78;20996;-79
2021/08/09 08:16:43;;;;;;;31.80;15.23;;;;;;;47.77;26.47;100651.56;1809223;78;21004;-80
2021/08/09 08:19:09;;;;;;;28.85;14.78;;;;;;;47.86;26.79;100649.09;1798265;79;21693;-79
2021/08/09 08:21:35;;;;;;;23.77;14.85;;;;;;;48.40;25.75;100655.93;1809405;78;20949;-80
2021/08/09 08:24:01;;;;;;;23.40;14.80;;;;;;;48.48;25.10;100650.43;1809424;78;20880;-79
2021/08/09 08:26:27;;;;;;;22.93;14.25;;;;;;;48.33;25.43;100660.74;1808487;78;21021;-79
2021/08/09 08:28:56;;;;;;;29.92;14.28;;;;;;;48.37;25.37;100654.89;1806734;78;21047;-79
2021/08/09 08:31:22;;;;;;;26.27;15.85;;;;;;;48.63;25.03;100658.10;1792306;78;21070;-79
2021/08/09 08:33:48;;;;;;;22.90;14.80;;;;;;;48.82;24.92;100656.84;1802229;79;20971;-80
2021/08/09 08:36:14;;;;;;;23.30;15.38;;;;;;;49.24;25.04;100655.61;1799736;78;20884;-79
2021/08/09 08:38:40;;;;;;;28.00;16.23;;;;;;;49.49;24.39;100660.02;1794669;79;20876;-79
2021/08/09 08:41:06;;;;;;;26.95;15.25;;;;;;;48.79;23.91;100662.19;1798671;78;20940;-79
2021/08/09 08:43:33;;;;;;;26.68;13.60;;;;;;;47.62;24.75;100663.21;1775248;79;21971;-80
2021/08/09 08:46:05;;;;;;;27.55;13.85;;;;;;;46.62;25.69;100662.97;1777331;80;21019;-80
2021/08/09 08:48:33;;;;;;;28.20;13.38;;;;;;;45.93;26.93;100665.88;1777582;80;21035;-80
2021/08/09 08:51:01;;;;;;;29.72;13.25;;;;;;;45.75;27.36;100666.34;1777596;80;20981;-79
2021/08/09 08:53:31;;;;;;;25.52;13.00;;;;;;;45.27;27.78;100666.08;1777316;80;20984;-79
2021/08/09 08:55:58;;;;;;;31.75;13.68;;;;;;;45.30;28.57;100662.23;1777522;80;21543;-80
2021/08/09 08:58:23;;;;;;;26.95;12.73;;;;;;;45.63;28.02;100663.27;1777203;79;21021;-80
2021/08/09 09:00:51;;;;;;;23.57;13.22;;;;;;;45.77;27.89;100661.55;1777341;80;20947;-80
2021/08/09 09:03:21;;;;;;;24.87;12.35;;;;;;;45.71;27.73;100665.80;1777543;80;20980;-80
2021/08/09 09:06:06;;;;;;;26.33;12.93;;;;;;;46.03;27.40;100663.61;1782953;79;20980;-79
2021/08/09 09:08:48;;;;;;;28.70;13.10;;;;;;;45.87;27.02;100662.95;1805026;79;21224;-80
2021/08/09 09:11:29;;;;;;;22.77;11.70;;;;;;;45.69;27.00;100663.31;1753315;80;21081;-79
2021/08/09 09:14:01;;;;;;;25.20;11.40;;;;;;;45.85;26.83;100664.09;1749810;81;21037;-80
2021/08/09 09:16:47;;;;;;;25.90;12.37;;;;;;;45.66;27.33;100660.05;1752631;81;21061;-79
2021/08/09 09:19:39;;;;;;;22.67;11.93;;;;;;;45.73;27.78;100657.52;1753162;81;21113;-79
2021/08/09 09:22:21;;;;;;;26.37;11.80;;;;;;;45.82;27.52;100655.13;1752708;80;21204;-80
2021/08/09 09:24:51;;;;;;;19.82;11.03;;;;;;;45.96;27.46;100657.09;1774738;80;21535;-80
2021/08/09 09:27:30;;;;;;;24.82;11.88;;;;;;;45.96;27.21;100655.66;1699749;83;20991;-80
2021/08/09 09:29:58;;;;;;;21.48;11.35;;;;;;;46.02;26.85;100656.36;1677937;85;21085;-79
2021/08/09 09:32:25;;;;;;;24.07;11.63;;;;;;;45.94;27.12;100656.03;1654860;85;21046;-79
2021/08/09 09:34:57;;;;;;;27.93;10.35;;;;;;;45.90;27.53;100655.49;1655060;85;21166;-80
2021/08/09 09:37:36;;;;;;;25.27;11.53;;;;;;;45.74;27.28;100656.87;1675409;85;21076;-78
2021/08/09 09:40:19;;;;;;;19.40;11.10;;;;;;;45.54;27.43;100652.05;1677417;85;21086;-79
2021/08/09 09:42:44;;;;;;;28.70;12.03;;;;;;;45.28;27.44;100651.36;1677826;85;21080;-80
2021/08/09 09:45:30;;;;;;;21.60;10.35;;;;;;;45.16;27.75;100650.33;1678175;85;21012;-80
2021/08/09 09:48:09;;;;;;;22.02;10.32;;;;;;;44.51;28.77;100649.86;1677850;85;21184;-79
2021/08/09 09:50:41;;;;;;;23.18;10.45;;;;;;;44.09;29.20;100655.90;1677952;85;21021;-78
2021/08/09 09:53:19;;;;;;;22.87;10.78;;;;;;;43.81;29.33;100653.37;1638476;87;21085;-80
2021/08/09 09:55:50;;;;;;;25.90;10.63;;;;;;;43.38;29.39;100654.23;1649165;87;21073;-80
2021/08/09 09:58:18;;;;;;;29.67;10.23;;;;;;;43.37;30.10;100654.74;1649362;87;21046;-80
2021/08/09 10:00:44;;;;;;;26.77;10.80;;;;;;;43.40;30.40;100656.61;1648943;87;21977;-79
2021/08/09 10:03:11;;;;;;;27.20;9.55;;;;;;;43.36;29.90;100653.16;1614296;87;21043;-80
2021/08/09 10:05:43;;;;;;;21.12;10.03;;;;;;;43.09;30.40;100660.61;1614143;88;21114;-80
2021/08/09 10:08:15;;;;;;;31.93;10.55;;;;;;;42.98;30.67;100651.25;1645317;86;21073;-79
2021/08/09 10:10:48;;;;;;;23.42;10.63;;;;;;;42.78;30.48;100654.70;1657569;86;21061;-78
2021/08/09 10:13:23;;;;;;;25.62;10.60;;;;;;;42.51;31.09;100649.96;1646998;86;21218;-79
2021/08/09 10:16:02;;;;;;;24.32;10.53;;;;;;;42.32;31.37;100652.73;1634417;87;21187;-79
2021/08/09 10:18:32;;;;;;;22.98;10.08;;;;;;;42.30;31.25;100653.80;1631492;86;21039;-79
2021/08/09 10:21:01;;;;;;;26.40;10.65;;;;;;;42.38;30.83;100651.59;1663945;85;21090;-80
2021/08/09 10:23:44;;;;;;;25.72;10.28;;;;;;;42.38;31.09;100650.81;1654999;84;21050;-80
2021/08/09 10:26:33;;;;;;;29.90;10.03;;;;;;;42.30;30.87;100644.70;1699605;82;21157;-82
2021/08/09 10:29:11;;;;;;;19.15;9.88;;;;;;;41.98;30.92;100647.66;1705297;84;21532;-82
2021/08/09 10:31:41;;;;;;;25.45;10.43;;;;;;;41.66;31.07;100643.47;1705039;84;21474;-83
2021/08/09 10:34:32;;;;;;;22.30;10.68;;;;;;;41.33;31.52;100641.29;1712357;82;21018;-83
2021/08/09 10:37:15;;;;;;;24.07;9.85;;;;;;;40.71;32.31;100638.69;1713911;83;21068;-82
2021/08/09 10:39:57;;;;;;;19.27;10.08;;;;;;;40.09;32.83;100638.90;1713965;83;21079;-81
2021/08/09 10:42:37;;;;;;;34.15;10.75;;;;;;;40.10;33.84;100636.25;1714267;83;21597;-82
2021/08/09 10:45:07;;;;;;;25.30;10.32;;;;;;;40.29;33.97;100639.17;1714221;83;21097;-81
2021/08/09 10:47:54;;;;;;;24.12;10.03;;;;;;;39.88;33.80;100636.92;1714137;83;21082;-82
2021/08/09 10:50:28;;;;;;;25.50;9.53;;;;;;;39.70;33.73;100644.00;1714091;83;21030;-83
2021/08/09 10:52:55;;;;;;;29.90;9.48;;;;;;;39.39;33.82;100640.33;1714179;83;22134;-81
2021/08/09 10:55:36;;;;;;;23.80;10.03;;;;;;;39.69;34.37;100641.66;1717592;78;21583;-80
2021/08/09 10:58:05;;;;;;;34.48;10.32;;;;;;;40.01;34.23;100639.67;1813096;79;21453;-82
2021/08/09 11:00:51;;;;;;;29.40;9.80;;;;;;;40.21;33.90;100633.64;1809271;79;20999;-82
2021/08/09 11:03:20;;;;;;;25.52;10.20;;;;;;;39.85;33.51;100641.45;1809194;79;21026;-82
2021/08/09 11:05:45;;;;;;;37.98;10.85;;;;;;;39.62;34.10;100637.67;1808602;79;21074;-82
2021/08/09 11:08:20;;;;;;;32.38;11.83;;;;;;;39.35;34.96;100636.86;1809000;79;21003;-82
2021/08/09 11:11:02;;;;;;;27.87;11.85;;;;;;;39.32;35.63;100635.73;1808899;79;21117;-82
2021/08/09 11:13:39;;;;;;;27.95;11.18;;;;;;;38.67;34.93;100631.48;1804934;79;21101;-83
2021/08/09 11:16:05;;;;;;;22.32;9.43;;;;;;;38.06;35.97;100632.61;1798776;79;21011;-83
2021/08/09 11:21:05;;;;;;;27.80;9.65;;;;;;;38.18;36.31;100629.02;1798375;79;21001;-82
2021/08/09 11:23:45;;;;;;;22.82;10.25;;;;;;;38.47;36.39;100628.14;1771639;79;21004;-83
2021/08/09 11:26:26;;;;;;;21.33;10.75;;;;;;;38.46;36.14;100625.16;1797858;79;20981;-83